Current Weather

Basrah Intl

Basrah Intl, Iraq (ORMM)

Report from: Tuesday, July 16, 2024 2:00 PM UTC
Current time: Tuesday, July 16, 2024 3:04 PM UTC

Nearby weather – Weather history – Daily summaries
Weather forecast

Temperature45.0°C (113.0°F)
Heat index43.0°C (109.4°F)
Dew point9.0°C (48.2°F)
Winds 15 kts (7.7 m/s, 17.3 mph) North-Northwest (340°)
Clouds Sky clear
Altimeter29.41 in.Hg (996 mB)
Relative humidity12 %
Density altitude4,078 ft. (1,243 m)
Remarks Ceiling and visibility OK
No significant changes expected in the next two hours
Flight conditions Visual Meteorological Conditions
Raw dataORMM 161400Z 34015KT CAVOK 45/09 Q0996 NOSIG
An error has occurred. This application may no longer respond until reloaded. Reload 🗙